AEE503 EDDM-LGTS
Flight info
| Callsign | AEE503 |
|---|---|
| Flight time | N/A |
| Altitude | 35000 |
| Route | ROTAX3S ROTAX L603 LATLO DCT OBEDI DCT KLAGY DCT MAGAM DCT IRDIV DCT PODOB DCT MEDUX UM867 KOGAT DCT ERANA T389 ALIKO |
| Aircraft | A320/M-SDE3FGHIRWY/LB1 |
Departure
| Time | 2026-05-04 18:48 |
|---|---|
| Airport | Munich Airport (EDDM) |
Arrival
| Time | N/A |
|---|---|
| Airport | Thessaloniki Macedonia International Airport (LGTS) |
| Time | Latitude | Longitude | Altitude | Speed | Heading |
|---|---|---|---|---|---|
| 2026-05-04 18:01 | 48.35744 | 11.79929 | 1486 ft | 0 kts | 263° |
| 2026-05-04 18:37 | 48.35744 | 11.79935 | 1472 ft | 2 kts | 263° |
| 2026-05-04 18:37 | 48.35746 | 11.79960 | 1481 ft | 2 kts | 263° |
| 2026-05-04 18:37 | 48.35748 | 11.79984 | 1471 ft | 2 kts | 263° |
| 2026-05-04 18:38 | 48.35750 | 11.80008 | 1481 ft | 2 kts | 263° |
| 2026-05-04 18:38 | 48.35752 | 11.80032 | 1477 ft | 2 kts | 249° |
| 2026-05-04 18:38 | 48.35759 | 11.80054 | 1483 ft | 2 kts | 220° |
| 2026-05-04 18:38 | 48.35773 | 11.80067 | 1473 ft | 2 kts | 192° |
| 2026-05-04 18:39 | 48.35789 | 11.80067 | 1479 ft | 2 kts | 152° |
| 2026-05-04 18:39 | 48.35802 | 11.80052 | 1472 ft | 2 kts | 116° |
| 2026-05-04 18:39 | 48.35807 | 11.80029 | 1477 ft | 2 kts | 98° |
| 2026-05-04 18:39 | 48.35809 | 11.80005 | 1471 ft | 2 kts | 93° |
| 2026-05-04 18:40 | 48.35808 | 11.79980 | 1471 ft | 2 kts | 83° |
| 2026-05-04 18:40 | 48.35806 | 11.79956 | 1473 ft | 2 kts | 83° |
| 2026-05-04 18:40 | 48.35806 | 11.79955 | 1473 ft | 0 kts | 83° |
| 2026-05-04 18:43 | 48.35808 | 11.79974 | 1471 ft | 5 kts | 83° |
| 2026-05-04 18:43 | 48.35795 | 11.80052 | 1482 ft | 9 kts | 130° |
| 2026-05-04 18:43 | 48.35733 | 11.80074 | 1477 ft | 10 kts | 174° |
| 2026-05-04 18:43 | 48.35660 | 11.80108 | 1482 ft | 12 kts | 155° |
| 2026-05-04 18:44 | 48.35575 | 11.80135 | 1481 ft | 13 kts | 181° |
| 2026-05-04 18:44 | 48.35546 | 11.80142 | 1485 ft | 13 kts | 170° |
| 2026-05-04 18:44 | 48.35390 | 11.80181 | 1480 ft | 15 kts | 164° |
| 2026-05-04 18:44 | 48.35286 | 11.80202 | 1481 ft | 15 kts | 170° |
| 2026-05-04 18:45 | 48.35182 | 11.80224 | 1481 ft | 15 kts | 173° |
| 2026-05-04 18:45 | 48.35105 | 11.80165 | 1481 ft | 15 kts | 262° |
| 2026-05-04 18:45 | 48.35095 | 11.80003 | 1482 ft | 16 kts | 264° |
| 2026-05-04 18:45 | 48.35082 | 11.79835 | 1473 ft | 16 kts | 263° |
| 2026-05-04 18:46 | 48.35056 | 11.79682 | 1476 ft | 15 kts | 225° |
| 2026-05-04 18:46 | 48.34953 | 11.79676 | 1481 ft | 16 kts | 173° |
| 2026-05-04 18:46 | 48.34840 | 11.79697 | 1484 ft | 17 kts | 173° |
| 2026-05-04 18:46 | 48.34725 | 11.79707 | 1485 ft | 15 kts | 195° |
| 2026-05-04 18:47 | 48.34640 | 11.79572 | 1482 ft | 23 kts | 232° |
| 2026-05-04 18:47 | 48.34540 | 11.79372 | 1479 ft | 24 kts | 234° |
| 2026-05-04 18:47 | 48.34439 | 11.79163 | 1481 ft | 25 kts | 233° |
| 2026-05-04 18:47 | 48.34364 | 11.78925 | 1475 ft | 28 kts | 262° |
| 2026-05-04 18:48 | 48.34322 | 11.78384 | 1485 ft | 86 kts | 264° |
| 2026-05-04 18:48 | 48.34231 | 11.77210 | 1482 ft | 139 kts | 263° |
| 2026-05-04 18:48 | 48.34108 | 11.75575 | 1814 ft | 162 kts | 264° |
| 2026-05-04 18:48 | 48.33981 | 11.73888 | 2596 ft | 164 kts | 264° |
| 2026-05-04 18:49 | 48.33856 | 11.72171 | 3293 ft | 167 kts | 264° |
| 2026-05-04 18:49 | 48.33528 | 11.70497 | 3846 ft | 174 kts | 231° |
| 2026-05-04 18:49 | 48.32487 | 11.69615 | 4137 ft | 179 kts | 182° |
| 2026-05-04 18:49 | 48.31238 | 11.69814 | 4508 ft | 182 kts | 170° |
| 2026-05-04 18:50 | 48.29941 | 11.70099 | 4830 ft | 195 kts | 171° |
| 2026-05-04 18:50 | 48.28627 | 11.70696 | 5042 ft | 210 kts | 152° |
| 2026-05-04 18:50 | 48.27387 | 11.72023 | 5294 ft | 230 kts | 140° |
| 2026-05-04 18:50 | 48.26061 | 11.73559 | 5633 ft | 252 kts | 144° |
| 2026-05-04 18:51 | 48.24568 | 11.75120 | 6085 ft | 269 kts | 146° |
| 2026-05-04 18:51 | 48.22997 | 11.76703 | 6793 ft | 275 kts | 147° |
| 2026-05-04 18:51 | 48.21395 | 11.78302 | 7556 ft | 278 kts | 148° |
| 2026-05-04 18:51 | 48.19780 | 11.79911 | 8335 ft | 280 kts | 148° |
| 2026-05-04 18:52 | 48.18179 | 11.81619 | 8792 ft | 285 kts | 141° |
| 2026-05-04 18:52 | 48.16827 | 11.83804 | 8919 ft | 287 kts | 131° |
| 2026-05-04 18:52 | 48.15567 | 11.86112 | 8941 ft | 286 kts | 131° |
| 2026-05-04 18:52 | 48.14328 | 11.88384 | 8939 ft | 286 kts | 131° |
| 2026-05-04 18:53 | 48.13068 | 11.90683 | 8938 ft | 285 kts | 131° |
| 2026-05-04 18:53 | 48.11804 | 11.92977 | 9059 ft | 289 kts | 132° |
| 2026-05-04 18:53 | 48.10521 | 11.95301 | 9845 ft | 289 kts | 132° |
| 2026-05-04 18:53 | 48.09210 | 11.97669 | 10240 ft | 306 kts | 132° |
| 2026-05-04 18:54 | 48.07818 | 12.00235 | 10379 ft | 330 kts | 128° |
| 2026-05-04 18:54 | 48.06648 | 12.03306 | 10626 ft | 349 kts | 115° |
| 2026-05-04 18:54 | 48.05780 | 12.06743 | 11158 ft | 356 kts | 113° |
| 2026-05-04 18:54 | 48.04911 | 12.10225 | 11766 ft | 359 kts | 113° |
| 2026-05-04 18:55 | 48.04027 | 12.13739 | 12372 ft | 363 kts | 114° |
| 2026-05-04 18:55 | 48.02235 | 12.20804 | 13590 ft | 369 kts | 114° |
| 2026-05-04 18:55 | 48.01321 | 12.24395 | 14144 ft | 373 kts | 114° |
| 2026-05-04 18:56 | 48.00396 | 12.28024 | 14670 ft | 376 kts | 114° |
| 2026-05-04 18:56 | 47.99461 | 12.31690 | 15176 ft | 380 kts | 114° |
| 2026-05-04 18:56 | 47.98474 | 12.35360 | 15671 ft | 381 kts | 118° |
| 2026-05-04 18:56 | 47.97095 | 12.38730 | 16141 ft | 381 kts | 131° |
| 2026-05-04 18:57 | 47.95383 | 12.41754 | 16632 ft | 384 kts | 133° |
| 2026-05-04 18:57 | 47.93650 | 12.44809 | 17112 ft | 388 kts | 133° |
| 2026-05-04 18:57 | 47.91900 | 12.47891 | 17608 ft | 391 kts | 133° |
| 2026-05-04 18:57 | 47.90154 | 12.50953 | 18112 ft | 395 kts | 132° |
| 2026-05-04 18:58 | 47.88366 | 12.54077 | 18564 ft | 398 kts | 132° |
| 2026-05-04 18:58 | 47.86559 | 12.57220 | 19024 ft | 401 kts | 132° |
| 2026-05-04 18:58 | 47.84739 | 12.60379 | 19489 ft | 403 kts | 132° |
| 2026-05-04 18:58 | 47.82904 | 12.63563 | 19970 ft | 406 kts | 132° |
| 2026-05-04 18:59 | 47.81068 | 12.66770 | 20449 ft | 409 kts | 132° |
| 2026-05-04 18:59 | 47.79226 | 12.69999 | 20874 ft | 411 kts | 131° |
| 2026-05-04 18:59 | 47.77368 | 12.73260 | 21275 ft | 414 kts | 131° |
| 2026-05-04 18:59 | 47.75503 | 12.76527 | 21697 ft | 416 kts | 131° |
| 2026-05-04 19:00 | 47.73644 | 12.79772 | 22088 ft | 419 kts | 131° |
| 2026-05-04 19:00 | 47.71745 | 12.83080 | 22507 ft | 422 kts | 131° |
| 2026-05-04 19:00 | 47.69836 | 12.86397 | 22913 ft | 424 kts | 131° |
| 2026-05-04 19:00 | 47.67916 | 12.89735 | 23327 ft | 427 kts | 131° |
| 2026-05-04 19:01 | 47.65980 | 12.93098 | 23679 ft | 430 kts | 131° |
| 2026-05-04 19:01 | 47.64034 | 12.96477 | 24017 ft | 432 kts | 131° |
| 2026-05-04 19:01 | 47.62080 | 12.99865 | 24356 ft | 433 kts | 131° |
| 2026-05-04 19:01 | 47.60113 | 13.03263 | 24700 ft | 435 kts | 132° |
| 2026-05-04 19:02 | 47.58807 | 13.05517 | 24920 ft | 436 kts | 132° |
| 2026-05-04 19:02 | 47.56179 | 13.10041 | 25365 ft | 438 kts | 132° |
| 2026-05-04 19:02 | 47.54187 | 13.13468 | 25695 ft | 440 kts | 132° |
| 2026-05-04 19:02 | 47.52187 | 13.16906 | 26050 ft | 442 kts | 132° |
| 2026-05-04 19:03 | 47.50179 | 13.20361 | 26387 ft | 444 kts | 132° |
| 2026-05-04 19:03 | 47.48162 | 13.23827 | 26754 ft | 446 kts | 132° |
| 2026-05-04 19:03 | 47.46820 | 13.26130 | 26987 ft | 447 kts | 132° |
| 2026-05-04 19:03 | 47.44785 | 13.29619 | 27342 ft | 449 kts | 132° |
| 2026-05-04 19:04 | 47.42751 | 13.33102 | 27796 ft | 447 kts | 133° |
| 2026-05-04 19:04 | 47.40065 | 13.37690 | 28441 ft | 445 kts | 133° |
| 2026-05-04 19:04 | 47.38045 | 13.41140 | 28915 ft | 444 kts | 133° |
| 2026-05-04 19:04 | 47.36679 | 13.43467 | 29235 ft | 443 kts | 133° |
| 2026-05-04 19:05 | 47.34664 | 13.46902 | 29711 ft | 441 kts | 133° |
| 2026-05-04 19:05 | 47.32707 | 13.50275 | 29439 ft | 437 kts | 133° |
| 2026-05-04 19:05 | 47.30726 | 13.53690 | 28580 ft | 440 kts | 133° |